Time;durP1;ratioP1;P1;durP2;ratioP2;P2;SDS_P1;SDS_P2;PMS_P1;PMS_P2;Temp;Humidity;BMP_temperature;BMP_pressure;BME280_temperature;BME280_humidity;BME280_pressure;Samples;Min_cycle;Max_cycle;Signal;HPM_P1;HPM_P2
2023/08/25 00:00:31;;;;;;;40.97;33.63;;;;;;;;;;5020702;28;20045;-78
2023/08/25 00:02:57;;;;;;;39.25;34.55;;;;;;;;;;5042550;28;20040;-79
2023/08/25 00:05:23;;;;;;;40.30;36.03;;;;;;;;;;5020873;28;20062;-78
2023/08/25 00:07:49;;;;;;;39.58;35.13;;;;;;;;;;5021436;28;20468;-78
2023/08/25 00:10:15;;;;;;;40.08;35.83;;;;;;;;;;5022659;28;20700;-78
2023/08/25 00:12:41;;;;;;;43.10;38.70;;;;;;;;;;5004692;28;20090;-78
2023/08/25 00:15:08;;;;;;;42.65;37.78;;;;;;;;;;5035628;28;20516;-78
2023/08/25 00:17:34;;;;;;;50.70;41.10;;;;;;;;;;5018203;28;20091;-78
2023/08/25 00:20:01;;;;;;;47.80;40.22;;;;;;;;;;5024099;28;20056;-78
2023/08/25 00:22:27;;;;;;;44.20;39.38;;;;;;;;;;5035352;28;20052;-78
2023/08/25 00:24:55;;;;;;;47.55;41.67;;;;;;;;;;5016840;28;20044;-78
2023/08/25 00:27:22;;;;;;;44.83;39.92;;;;;;;;;;5002058;28;20128;-78
2023/08/25 00:29:49;;;;;;;46.22;41.17;;;;;;;;;;5016026;28;20055;-78
2023/08/25 00:32:15;;;;;;;47.72;41.28;;;;;;;;;;5014939;28;20048;-78
2023/08/25 00:34:41;;;;;;;45.20;40.20;;;;;;;;;;5015767;28;20041;-78
2023/08/25 00:37:07;;;;;;;46.55;40.97;;;;;;;;;;5001369;28;20037;-78
2023/08/25 00:39:33;;;;;;;51.67;43.00;;;;;;;;;;5018065;28;20126;-78
2023/08/25 00:41:59;;;;;;;47.05;41.85;;;;;;;;;;5014980;28;20057;-78
2023/08/25 00:44:25;;;;;;;51.42;41.75;;;;;;;;;;5032435;28;20103;-78
2023/08/25 00:46:51;;;;;;;53.53;42.55;;;;;;;;;;5032313;28;20033;-78
2023/08/25 00:49:17;;;;;;;49.53;42.08;;;;;;;;;;5029919;28;20152;-78
2023/08/25 00:51:43;;;;;;;46.33;41.22;;;;;;;;;;5011548;28;20049;-78
2023/08/25 00:54:10;;;;;;;45.45;39.95;;;;;;;;;;4997100;28;20045;-78
2023/08/25 00:56:36;;;;;;;49.55;41.03;;;;;;;;;;5033326;28;20037;-78
2023/08/25 00:59:02;;;;;;;47.25;39.15;;;;;;;;;;5033646;28;20048;-78
2023/08/25 01:01:29;;;;;;;54.17;41.85;;;;;;;;;;4998067;28;20132;-78
2023/08/25 01:03:56;;;;;;;50.35;39.47;;;;;;;;;;5034279;28;20037;-78
2023/08/25 01:06:22;;;;;;;48.45;41.47;;;;;;;;;;5015617;28;20049;-78
2023/08/25 01:08:49;;;;;;;53.47;42.38;;;;;;;;;;5002160;28;20048;-78
2023/08/25 01:11:18;;;;;;;52.63;42.55;;;;;;;;;;4986900;28;20544;-78
2023/08/25 01:13:49;;;;;;;60.33;45.58;;;;;;;;;;5018537;28;20136;-78
2023/08/25 01:16:17;;;;;;;55.45;46.55;;;;;;;;;;5018919;28;20049;-78
2023/08/25 01:18:44;;;;;;;59.45;47.13;;;;;;;;;;5001537;28;20041;-78
2023/08/25 01:21:11;;;;;;;63.03;47.60;;;;;;;;;;5002001;28;20055;-78
2023/08/25 01:23:47;;;;;;;56.33;47.10;;;;;;;;;;5032559;28;20080;-78
2023/08/25 01:26:13;;;;;;;58.75;48.50;;;;;;;;;;5020537;28;20046;-77
2023/08/25 01:28:42;;;;;;;63.08;50.47;;;;;;;;;;5014219;28;20507;-78
2023/08/25 01:31:08;;;;;;;60.15;49.55;;;;;;;;;;5014264;28;20488;-77
2023/08/25 01:33:34;;;;;;;65.07;49.67;;;;;;;;;;5034834;28;20599;-78
2023/08/25 01:36:16;;;;;;;60.63;49.08;;;;;;;;;;5016113;28;20052;-78
2023/08/25 01:39:06;;;;;;;62.20;49.67;;;;;;;;;;5013633;28;20051;-78
2023/08/25 01:41:36;;;;;;;58.67;46.42;;;;;;;;;;5015971;28;20467;-78
2023/08/25 01:44:02;;;;;;;68.28;49.25;;;;;;;;;;5035838;28;21026;-78
2023/08/25 01:46:30;;;;;;;61.60;48.17;;;;;;;;;;5020516;28;20044;-78
2023/08/25 01:48:57;;;;;;;69.47;51.20;;;;;;;;;;5018514;28;20098;-78
2023/08/25 01:51:23;;;;;;;64.88;52.20;;;;;;;;;;5019602;28;20045;-78
2023/08/25 01:53:53;;;;;;;66.65;51.17;;;;;;;;;;5019050;28;20063;-78
2023/08/25 01:56:19;;;;;;;69.43;50.67;;;;;;;;;;5001502;28;21570;-77
2023/08/25 01:58:45;;;;;;;63.53;49.97;;;;;;;;;;5019982;28;20064;-78
2023/08/25 02:01:11;;;;;;;64.15;53.05;;;;;;;;;;5017539;28;20055;-77
2023/08/25 02:03:38;;;;;;;67.53;52.75;;;;;;;;;;5018211;28;20114;-78
2023/08/25 02:06:04;;;;;;;68.80;53.92;;;;;;;;;;5020411;28;20179;-78
2023/08/25 02:08:30;;;;;;;69.80;53.50;;;;;;;;;;5019911;28;20129;-78
2023/08/25 02:10:56;;;;;;;67.85;54.40;;;;;;;;;;5017349;28;20488;-78
2023/08/25 02:13:22;;;;;;;69.47;50.85;;;;;;;;;;5033777;28;20148;-78
2023/08/25 02:15:50;;;;;;;74.47;52.17;;;;;;;;;;5005438;28;20045;-78
2023/08/25 02:18:17;;;;;;;76.57;54.95;;;;;;;;;;5023543;28;20118;-78
2023/08/25 02:20:43;;;;;;;72.40;53.55;;;;;;;;;;5017021;28;20052;-78
2023/08/25 02:23:09;;;;;;;74.25;55.97;;;;;;;;;;5001355;28;20049;-78
2023/08/25 02:25:35;;;;;;;71.57;56.33;;;;;;;;;;5038867;28;20036;-78
2023/08/25 02:28:01;;;;;;;80.97;58.03;;;;;;;;;;5017126;28;20052;-78
2023/08/25 02:30:27;;;;;;;80.50;56.05;;;;;;;;;;5016147;28;20049;-78
2023/08/25 02:32:55;;;;;;;76.22;56.08;;;;;;;;;;5017865;28;20056;-78
2023/08/25 02:35:21;;;;;;;81.00;58.97;;;;;;;;;;5018532;28;20076;-78
2023/08/25 02:38:00;;;;;;;78.50;57.97;;;;;;;;;;5017251;28;20076;-78
2023/08/25 02:40:27;;;;;;;79.82;57.08;;;;;;;;;;5016323;28;20052;-78
2023/08/25 02:42:54;;;;;;;79.03;58.72;;;;;;;;;;5020769;28;20131;-78
2023/08/25 02:45:23;;;;;;;82.80;59.42;;;;;;;;;;5036999;28;20045;-78
2023/08/25 02:47:49;;;;;;;78.70;59.00;;;;;;;;;;5019140;28;20111;-78
2023/08/25 02:50:16;;;;;;;74.97;57.90;;;;;;;;;;5020492;28;20118;-78
2023/08/25 02:52:42;;;;;;;83.30;58.88;;;;;;;;;;5037240;28;20261;-78
2023/08/25 02:55:08;;;;;;;84.55;57.97;;;;;;;;;;5025481;28;20070;-79
2023/08/25 02:57:34;;;;;;;76.10;56.55;;;;;;;;;;5021513;28;20047;-78
2023/08/25 03:00:00;;;;;;;78.68;57.58;;;;;;;;;;5003089;28;20053;-78
2023/08/25 03:02:26;;;;;;;80.22;55.53;;;;;;;;;;5037116;28;20508;-78
2023/08/25 03:04:52;;;;;;;77.05;55.70;;;;;;;;;;5020500;28;20162;-78
2023/08/25 03:07:18;;;;;;;84.57;57.22;;;;;;;;;;5019656;28;20051;-78
2023/08/25 03:09:45;;;;;;;79.22;57.63;;;;;;;;;;5018438;28;20102;-78
2023/08/25 03:12:11;;;;;;;88.93;60.72;;;;;;;;;;5033787;28;20167;-78
2023/08/25 03:14:37;;;;;;;81.03;58.03;;;;;;;;;;5017137;28;20052;-78
2023/08/25 03:17:03;;;;;;;85.70;58.58;;;;;;;;;;4999751;28;20044;-78
2023/08/25 03:19:29;;;;;;;81.07;57.65;;;;;;;;;;5016225;28;20548;-79
2023/08/25 03:21:55;;;;;;;76.55;57.97;;;;;;;;;;5015687;28;20103;-78
2023/08/25 03:24:21;;;;;;;86.20;57.83;;;;;;;;;;5003013;28;20045;-78
2023/08/25 03:26:47;;;;;;;86.05;57.75;;;;;;;;;;5014667;28;20051;-78
2023/08/25 03:29:13;;;;;;;81.82;56.42;;;;;;;;;;5000482;28;20073;-78
2023/08/25 03:31:39;;;;;;;85.88;57.53;;;;;;;;;;5034411;28;20758;-78
2023/08/25 03:34:05;;;;;;;86.47;58.75;;;;;;;;;;5033001;28;20160;-78
2023/08/25 03:36:32;;;;;;;92.95;58.08;;;;;;;;;;5033191;28;20045;-79
2023/08/25 03:38:58;;;;;;;87.65;57.40;;;;;;;;;;5036641;28;20067;-79
2023/08/25 03:41:24;;;;;;;93.32;56.13;;;;;;;;;;5017322;28;20053;-78
2023/08/25 03:43:50;;;;;;;86.15;54.33;;;;;;;;;;5019993;28;20789;-78
2023/08/25 03:46:16;;;;;;;89.50;54.53;;;;;;;;;;5035006;28;20106;-78
2023/08/25 03:48:42;;;;;;;88.25;55.08;;;;;;;;;;5035154;28;20106;-78
2023/08/25 03:51:08;;;;;;;90.65;56.42;;;;;;;;;;5036463;28;20041;-78
2023/08/25 03:53:34;;;;;;;94.65;56.10;;;;;;;;;;5001588;28;20040;-78
2023/08/25 03:56:00;;;;;;;87.88;55.85;;;;;;;;;;5018369;28;20093;-78
2023/08/25 03:58:26;;;;;;;85.47;52.67;;;;;;;;;;5017078;28;20052;-78
2023/08/25 04:00:56;;;;;;;83.53;53.47;;;;;;;;;;5014609;28;20066;-78
2023/08/25 04:03:22;;;;;;;87.93;53.80;;;;;;;;;;5011762;28;20131;-78
2023/08/25 04:05:48;;;;;;;84.35;54.25;;;;;;;;;;5013796;28;21925;-79
2023/08/25 04:08:15;;;;;;;94.97;53.72;;;;;;;;;;5002445;28;20055;-79
2023/08/25 04:10:43;;;;;;;97.28;54.55;;;;;;;;;;5012398;28;20052;-79
2023/08/25 04:13:10;;;;;;;86.63;52.78;;;;;;;;;;5005658;28;20057;-79
2023/08/25 04:15:36;;;;;;;89.15;52.78;;;;;;;;;;5011178;28;20195;-79
2023/08/25 04:18:03;;;;;;;82.15;51.53;;;;;;;;;;5005789;28;20049;-78
2023/08/25 04:20:29;;;;;;;88.40;54.30;;;;;;;;;;5011324;28;20045;-79
2023/08/25 04:22:55;;;;;;;89.90;53.25;;;;;;;;;;5007143;28;20056;-78
2023/08/25 04:25:21;;;;;;;90.47;54.55;;;;;;;;;;5005099;28;22049;-78
2023/08/25 04:27:47;;;;;;;89.90;51.92;;;;;;;;;;5007200;28;20524;-78
2023/08/25 04:30:13;;;;;;;90.43;53.90;;;;;;;;;;5016005;28;20049;-78
2023/08/25 04:32:39;;;;;;;84.85;51.53;;;;;;;;;;5019009;28;20084;-78
2023/08/25 04:35:06;;;;;;;88.72;52.85;;;;;;;;;;5019161;28;20083;-79
2023/08/25 04:37:32;;;;;;;86.38;52.78;;;;;;;;;;5016858;28;20647;-78
2023/08/25 04:39:58;;;;;;;91.70;56.70;;;;;;;;;;5016432;28;20036;-78
2023/08/25 04:42:26;;;;;;;82.07;53.33;;;;;;;;;;5017938;28;20041;-78
2023/08/25 04:44:52;;;;;;;88.15;54.47;;;;;;;;;;5012612;28;20520;-78
2023/08/25 04:47:18;;;;;;;79.25;52.33;;;;;;;;;;5010040;28;20045;-78
2023/08/25 04:49:44;;;;;;;81.05;52.42;;;;;;;;;;4999689;28;20053;-78
2023/08/25 04:52:10;;;;;;;82.35;53.65;;;;;;;;;;5012289;28;20077;-78
2023/08/25 04:54:36;;;;;;;87.68;55.47;;;;;;;;;;5011309;28;20140;-78
2023/08/25 04:57:03;;;;;;;83.38;53.50;;;;;;;;;;5011552;28;20076;-78
2023/08/25 04:59:29;;;;;;;83.13;53.85;;;;;;;;;;5011777;28;20763;-78
2023/08/25 05:01:55;;;;;;;80.65;54.17;;;;;;;;;;5012878;28;20052;-78
2023/08/25 05:04:21;;;;;;;89.40;54.72;;;;;;;;;;5014028;28;20807;-78
2023/08/25 05:06:47;;;;;;;82.68;53.38;;;;;;;;;;5013455;28;20049;-78
2023/08/25 05:09:13;;;;;;;89.47;55.47;;;;;;;;;;5000471;28;20151;-78
2023/08/25 05:11:39;;;;;;;87.68;54.72;;;;;;;;;;5016506;28;20045;-79
2023/08/25 05:14:05;;;;;;;86.60;54.10;;;;;;;;;;5027709;28;20063;-79
2023/08/25 05:16:32;;;;;;;89.25;54.50;;;;;;;;;;5017112;28;20040;-78
2023/08/25 05:18:58;;;;;;;81.70;52.15;;;;;;;;;;5019657;28;20044;-78
2023/08/25 05:21:24;;;;;;;84.55;53.85;;;;;;;;;;5016563;28;20045;-78
2023/08/25 05:23:53;;;;;;;80.05;53.25;;;;;;;;;;4999326;28;21015;-78
2023/08/25 05:26:19;;;;;;;86.00;52.65;;;;;;;;;;5034313;28;20051;-78
2023/08/25 05:28:45;;;;;;;80.32;52.83;;;;;;;;;;5035016;28;20052;-78
2023/08/25 05:31:11;;;;;;;83.07;53.97;;;;;;;;;;5032790;28;20052;-79
2023/08/25 05:33:38;;;;;;;90.55;53.60;;;;;;;;;;5020145;28;21749;-78
2023/08/25 05:36:04;;;;;;;88.55;55.35;;;;;;;;;;5018755;28;20074;-78
2023/08/25 05:38:30;;;;;;;95.85;55.58;;;;;;;;;;5036914;28;20058;-78
2023/08/25 05:40:56;;;;;;;86.10;55.38;;;;;;;;;;5022478;28;20044;-78
2023/08/25 05:43:22;;;;;;;93.55;57.10;;;;;;;;;;5020630;28;20062;-78
2023/08/25 05:45:48;;;;;;;93.22;58.85;;;;;;;;;;5034519;28;22969;-78
2023/08/25 05:48:15;;;;;;;98.35;60.05;;;;;;;;;;5020559;28;20429;-78
2023/08/25 05:50:41;;;;;;;102.40;59.85;;;;;;;;;;5035925;28;20401;-78
2023/08/25 05:53:07;;;;;;;103.68;59.40;;;;;;;;;;5037281;28;20039;-78
2023/08/25 05:55:34;;;;;;;101.47;60.58;;;;;;;;;;5019350;28;20044;-78
2023/08/25 05:58:00;;;;;;;96.03;61.13;;;;;;;;;;5020225;28;20087;-78
2023/08/25 06:00:26;;;;;;;105.00;61.30;;;;;;;;;;5001888;28;21812;-78
2023/08/25 06:02:52;;;;;;;108.78;61.22;;;;;;;;;;5035397;28;20094;-78
2023/08/25 06:05:19;;;;;;;108.78;62.78;;;;;;;;;;5017468;28;20132;-78
2023/08/25 06:07:45;;;;;;;103.85;63.83;;;;;;;;;;5003997;28;20535;-79
2023/08/25 06:10:11;;;;;;;106.97;63.70;;;;;;;;;;5027268;28;20102;-78
2023/08/25 06:12:37;;;;;;;114.25;66.03;;;;;;;;;;5001092;28;20059;-78
2023/08/25 06:15:03;;;;;;;109.63;65.88;;;;;;;;;;5036165;28;20106;-78
2023/08/25 06:17:30;;;;;;;116.93;66.15;;;;;;;;;;5015538;28;20094;-78
2023/08/25 06:19:56;;;;;;;129.40;69.63;;;;;;;;;;5014948;28;21685;-78
2023/08/25 06:22:22;;;;;;;124.70;69.00;;;;;;;;;;5003554;28;20098;-78
2023/08/25 06:24:48;;;;;;;132.20;71.03;;;;;;;;;;5016644;28;20049;-78
2023/08/25 06:27:14;;;;;;;120.47;68.88;;;;;;;;;;5034378;28;20701;-79
2023/08/25 06:29:40;;;;;;;122.93;68.55;;;;;;;;;;5019015;28;20083;-79
2023/08/25 06:32:06;;;;;;;115.43;66.78;;;;;;;;;;5007100;28;20497;-78
2023/08/25 06:34:33;;;;;;;116.07;65.75;;;;;;;;;;5033900;28;20052;-78
2023/08/25 06:36:59;;;;;;;115.70;65.47;;;;;;;;;;5036213;28;20052;-78
2023/08/25 06:39:26;;;;;;;109.40;65.85;;;;;;;;;;5017218;28;20044;-78
2023/08/25 06:41:52;;;;;;;109.35;63.45;;;;;;;;;;5035659;28;20484;-78
2023/08/25 06:44:18;;;;;;;106.82;64.40;;;;;;;;;;5017613;28;20045;-78
2023/08/25 06:46:44;;;;;;;112.25;64.60;;;;;;;;;;5036188;28;20436;-78
2023/08/25 06:49:11;;;;;;;107.68;62.75;;;;;;;;;;5033039;28;20078;-78
2023/08/25 06:51:37;;;;;;;101.53;61.40;;;;;;;;;;5035466;28;20059;-79
2023/08/25 06:54:03;;;;;;;103.82;60.17;;;;;;;;;;5023053;28;20124;-78
2023/08/25 06:56:30;;;;;;;92.97;58.63;;;;;;;;;;5017135;28;20044;-78
2023/08/25 06:58:56;;;;;;;96.90;56.92;;;;;;;;;;5034109;28;20111;-78
2023/08/25 07:01:22;;;;;;;89.70;59.35;;;;;;;;;;5036077;28;20052;-78
2023/08/25 07:03:48;;;;;;;86.70;53.50;;;;;;;;;;5014733;28;20385;-78
2023/08/25 07:06:14;;;;;;;73.55;48.90;;;;;;;;;;5019528;28;20127;-78
2023/08/25 07:08:40;;;;;;;72.78;48.40;;;;;;;;;;5018121;28;20044;-78
2023/08/25 07:11:07;;;;;;;76.28;47.63;;;;;;;;;;5034462;28;20048;-78
2023/08/25 07:13:33;;;;;;;65.88;46.40;;;;;;;;;;5017894;28;20061;-78
2023/08/25 07:15:59;;;;;;;68.72;45.63;;;;;;;;;;5034769;28;20517;-78
2023/08/25 07:18:25;;;;;;;62.83;43.22;;;;;;;;;;5016036;28;20033;-78
2023/08/25 07:20:51;;;;;;;59.53;42.03;;;;;;;;;;5020782;28;20109;-78
2023/08/25 07:23:20;;;;;;;47.17;32.67;;;;;;;;;;5016092;28;20163;-78
2023/08/25 07:25:47;;;;;;;33.13;26.15;;;;;;;;;;5000122;28;20076;-78
2023/08/25 07:28:13;;;;;;;33.33;25.77;;;;;;;;;;5017629;28;20458;-78
2023/08/25 07:30:39;;;;;;;40.88;27.75;;;;;;;;;;5022846;28;20044;-78
2023/08/25 07:33:08;;;;;;;39.00;25.83;;;;;;;;;;4999718;28;20056;-78
2023/08/25 07:35:37;;;;;;;34.35;24.65;;;;;;;;;;5036019;28;20076;-77
2023/08/25 07:38:04;;;;;;;30.92;23.77;;;;;;;;;;5005266;28;20040;-78
2023/08/25 07:40:31;;;;;;;28.77;22.60;;;;;;;;;;5020495;28;20044;-77
2023/08/25 07:43:01;;;;;;;31.80;23.05;;;;;;;;;;5020146;28;20134;-77
2023/08/25 07:45:28;;;;;;;32.00;23.15;;;;;;;;;;5020409;28;20060;-77
2023/08/25 07:47:59;;;;;;;33.38;22.67;;;;;;;;;;5019549;28;20048;-77
2023/08/25 07:50:27;;;;;;;32.08;20.85;;;;;;;;;;5019728;28;20053;-77
2023/08/25 07:52:53;;;;;;;25.50;19.35;;;;;;;;;;5020288;28;20045;-77
2023/08/25 07:55:19;;;;;;;27.70;19.42;;;;;;;;;;5003393;28;20077;-79
2023/08/25 07:57:48;;;;;;;24.17;18.02;;;;;;;;;;5037627;28;20857;-79
2023/08/25 08:00:17;;;;;;;22.80;17.83;;;;;;;;;;5022633;28;20760;-79
2023/08/25 08:02:44;;;;;;;27.27;18.02;;;;;;;;;;4995663;28;20048;-79
2023/08/25 08:05:10;;;;;;;24.90;17.63;;;;;;;;;;5015732;28;20099;-79
2023/08/25 08:07:37;;;;;;;22.33;16.88;;;;;;;;;;5031762;28;20107;-76
2023/08/25 08:10:04;;;;;;;20.67;16.27;;;;;;;;;;5017500;28;20052;-80
2023/08/25 08:12:30;;;;;;;26.92;19.13;;;;;;;;;;5035913;28;20075;-84
2023/08/25 08:14:56;;;;;;;31.50;18.58;;;;;;;;;;5016627;28;20060;-76
2023/08/25 08:17:22;;;;;;;24.67;18.58;;;;;;;;;;5015173;28;20045;-80
2023/08/25 08:19:48;;;;;;;23.38;16.75;;;;;;;;;;5015241;28;20119;-74
2023/08/25 08:22:17;;;;;;;27.98;16.25;;;;;;;;;;5017560;28;20041;-74
2023/08/25 08:24:49;;;;;;;21.33;16.50;;;;;;;;;;4995522;28;20040;-74
2023/08/25 08:27:15;;;;;;;23.98;16.55;;;;;;;;;;5016639;28;20048;-74
2023/08/25 08:29:42;;;;;;;21.27;16.75;;;;;;;;;;4997079;28;20595;-74
2023/08/25 08:32:08;;;;;;;28.60;17.30;;;;;;;;;;5014767;28;20095;-73
2023/08/25 08:34:34;;;;;;;21.95;16.55;;;;;;;;;;5017938;28;20037;-73
2023/08/25 08:37:00;;;;;;;24.58;17.25;;;;;;;;;;5016385;28;20650;-75
2023/08/25 08:39:27;;;;;;;22.60;15.85;;;;;;;;;;5014789;28;20048;-75
2023/08/25 08:41:53;;;;;;;21.88;16.77;;;;;;;;;;5016274;28;20409;-75
2023/08/25 08:44:20;;;;;;;22.65;17.65;;;;;;;;;;5017735;28;20185;-75
2023/08/25 08:46:48;;;;;;;23.08;16.23;;;;;;;;;;5016152;28;20046;-75
2023/08/25 08:49:14;;;;;;;20.70;15.77;;;;;;;;;;5015693;28;20592;-75
2023/08/25 08:51:45;;;;;;;22.42;15.85;;;;;;;;;;5017836;28;20037;-75
2023/08/25 08:54:11;;;;;;;21.33;16.13;;;;;;;;;;5019563;28;20076;-75
2023/08/25 08:56:38;;;;;;;22.15;16.25;;;;;;;;;;5022036;28;20041;-75
2023/08/25 08:59:05;;;;;;;22.40;15.98;;;;;;;;;;5020657;28;20057;-75
2023/08/25 09:01:33;;;;;;;25.20;16.67;;;;;;;;;;5014753;28;21749;-75
2023/08/25 09:04:00;;;;;;;23.75;15.30;;;;;;;;;;5017843;28;20266;-75
2023/08/25 09:06:27;;;;;;;23.13;15.48;;;;;;;;;;5004545;28;20049;-75
2023/08/25 09:08:55;;;;;;;22.45;17.00;;;;;;;;;;5016395;28;20390;-75
2023/08/25 09:11:21;;;;;;;27.23;18.27;;;;;;;;;;5016568;28;21008;-76
2023/08/25 09:13:57;;;;;;;26.27;17.88;;;;;;;;;;5025287;28;20132;-75
2023/08/25 09:16:23;;;;;;;25.50;17.88;;;;;;;;;;5021623;28;20041;-75
2023/08/25 09:18:49;;;;;;;28.05;18.70;;;;;;;;;;5023077;28;20101;-76
2023/08/25 09:21:16;;;;;;;26.98;17.65;;;;;;;;;;5023070;28;20049;-77
2023/08/25 09:23:53;;;;;;;28.25;20.25;;;;;;;;;;5039758;28;20487;-76
2023/08/25 09:26:19;;;;;;;28.85;21.02;;;;;;;;;;5023111;28;20121;-76
2023/08/25 09:28:46;;;;;;;29.38;19.17;;;;;;;;;;5022519;28;20063;-76
2023/08/25 09:31:32;;;;;;;29.63;19.67;;;;;;;;;;5023055;28;20083;-76
2023/08/25 09:34:00;;;;;;;29.58;21.50;;;;;;;;;;5005860;28;20049;-76
2023/08/25 09:36:26;;;;;;;26.92;19.08;;;;;;;;;;5019656;28;20052;-76
2023/08/25 09:38:52;;;;;;;27.73;18.75;;;;;;;;;;5022627;28;20049;-76
2023/08/25 09:41:30;;;;;;;26.45;19.40;;;;;;;;;;5039487;28;22074;-76
2023/08/25 09:44:00;;;;;;;23.10;18.58;;;;;;;;;;5018404;28;20606;-75
2023/08/25 09:46:27;;;;;;;30.48;20.13;;;;;;;;;;5032393;28;20106;-76
2023/08/25 09:48:54;;;;;;;27.67;19.27;;;;;;;;;;5016105;28;20698;-77
2023/08/25 09:51:21;;;;;;;27.38;20.55;;;;;;;;;;5007338;28;20438;-77
2023/08/25 09:53:50;;;;;;;27.65;19.80;;;;;;;;;;5036488;28;20955;-76
2023/08/25 09:56:16;;;;;;;25.52;20.90;;;;;;;;;;5037932;28;20079;-76
2023/08/25 09:58:42;;;;;;;28.75;20.38;;;;;;;;;;5039754;28;20029;-76
2023/08/25 10:01:08;;;;;;;23.08;18.05;;;;;;;;;;5040827;28;20578;-76
2023/08/25 10:03:35;;;;;;;28.38;18.05;;;;;;;;;;5022741;28;20050;-76
2023/08/25 10:06:01;;;;;;;27.30;18.30;;;;;;;;;;5022007;28;20479;-76
2023/08/25 10:08:28;;;;;;;23.73;18.17;;;;;;;;;;5022571;28;20131;-76
2023/08/25 10:10:55;;;;;;;23.77;20.23;;;;;;;;;;5008035;28;20131;-77
2023/08/25 10:13:23;;;;;;;24.10;16.88;;;;;;;;;;5038955;28;20045;-76
2023/08/25 10:15:50;;;;;;;25.90;18.85;;;;;;;;;;5020091;28;20052;-76
2023/08/25 10:18:17;;;;;;;27.27;18.02;;;;;;;;;;5034513;28;20082;-76
2023/08/25 10:20:43;;;;;;;26.83;18.70;;;;;;;;;;5018692;28;20040;-77
2023/08/25 10:23:10;;;;;;;26.92;19.48;;;;;;;;;;5036962;28;20045;-77
2023/08/25 10:25:38;;;;;;;33.00;21.05;;;;;;;;;;5031733;28;20103;-76
2023/08/25 10:28:05;;;;;;;29.15;19.23;;;;;;;;;;5039373;28;20047;-77
2023/08/25 10:30:31;;;;;;;23.17;17.83;;;;;;;;;;5005427;28;20162;-76
2023/08/25 10:33:06;;;;;;;26.13;18.15;;;;;;;;;;5017328;28;20135;-76
2023/08/25 10:35:42;;;;;;;24.83;17.55;;;;;;;;;;5039136;28;20037;-77
2023/08/25 10:38:22;;;;;;;18.27;15.48;;;;;;;;;;5020695;28;20049;-77
2023/08/25 10:40:52;;;;;;;19.70;14.70;;;;;;;;;;5005705;28;20052;-77
2023/08/25 10:43:31;;;;;;;23.63;15.93;;;;;;;;;;5022316;28;20143;-77
2023/08/25 10:45:57;;;;;;;22.17;15.13;;;;;;;;;;5022173;28;20083;-77
2023/08/25 10:48:26;;;;;;;32.67;16.67;;;;;;;;;;5022357;28;20052;-77
2023/08/25 10:50:53;;;;;;;19.98;15.45;;;;;;;;;;5003753;28;20059;-77
2023/08/25 10:53:54;;;;;;;23.52;16.65;;;;;;;;;;5037360;28;20036;-77
2023/08/25 10:56:23;;;;;;;22.17;14.32;;;;;;;;;;4927886;28;20081;-78
2023/08/25 10:58:56;;;;;;;24.17;14.95;;;;;;;;;;5022160;28;20451;-75
2023/08/25 11:01:27;;;;;;;21.77;15.90;;;;;;;;;;5015036;28;20102;-75
2023/08/25 11:04:10;;;;;;;27.60;15.60;;;;;;;;;;5013417;28;20810;-75
2023/08/25 11:06:44;;;;;;;20.77;14.43;;;;;;;;;;5016410;28;20089;-75
2023/08/25 11:09:30;;;;;;;32.88;15.93;;;;;;;;;;5031847;28;20048;-74
2023/08/25 11:11:58;;;;;;;23.40;16.70;;;;;;;;;;5032062;28;20072;-74
2023/08/25 11:14:31;;;;;;;23.67;17.70;;;;;;;;;;5014893;28;20048;-74
2023/08/25 11:17:07;;;;;;;27.48;17.85;;;;;;;;;;5032660;28;20059;-73
2023/08/25 11:19:36;;;;;;;29.27;18.08;;;;;;;;;;5017665;28;20045;-74
2023/08/25 11:22:12;;;;;;;26.95;18.73;;;;;;;;;;5031183;28;20527;-74
2023/08/25 11:24:38;;;;;;;25.88;19.42;;;;;;;;;;5034632;28;20548;-73
2023/08/25 11:27:05;;;;;;;24.67;18.17;;;;;;;;;;5018489;28;20041;-74
2023/08/25 11:29:31;;;;;;;29.02;19.83;;;;;;;;;;5015908;28;20579;-74
2023/08/25 11:31:57;;;;;;;26.33;19.30;;;;;;;;;;4996974;28;20094;-74
2023/08/25 11:34:24;;;;;;;27.83;19.70;;;;;;;;;;5034638;28;20043;-74
2023/08/25 11:36:50;;;;;;;25.30;19.05;;;;;;;;;;5033451;28;20404;-74
2023/08/25 11:39:18;;;;;;;27.52;22.25;;;;;;;;;;5030444;28;20068;-75
2023/08/25 11:41:45;;;;;;;32.58;22.40;;;;;;;;;;5004033;28;20056;-73
2023/08/25 11:44:16;;;;;;;31.77;20.13;;;;;;;;;;5034252;28;21723;-73
2023/08/25 11:46:42;;;;;;;32.08;22.50;;;;;;;;;;5036464;28;20083;-75
2023/08/25 11:49:09;;;;;;;32.35;23.00;;;;;;;;;;5000985;28;20045;-75
2023/08/25 11:51:35;;;;;;;34.30;23.50;;;;;;;;;;5031346;28;20053;-75
2023/08/25 11:54:02;;;;;;;34.28;23.02;;;;;;;;;;5017403;28;20749;-75
2023/08/25 11:56:28;;;;;;;34.08;23.38;;;;;;;;;;5021404;28;20217;-74
2023/08/25 11:58:54;;;;;;;35.80;24.52;;;;;;;;;;5020147;28;20388;-75
2023/08/25 12:01:20;;;;;;;36.85;24.10;;;;;;;;;;5004748;28;20052;-74
2023/08/25 12:03:47;;;;;;;30.77;24.75;;;;;;;;;;5038437;28;20162;-75
2023/08/25 12:06:15;;;;;;;39.10;24.75;;;;;;;;;;5012939;28;20057;-75
2023/08/25 12:08:41;;;;;;;33.20;23.73;;;;;;;;;;5017740;28;20593;-75
2023/08/25 12:11:20;;;;;;;30.58;22.95;;;;;;;;;;5022095;28;20391;-75
2023/08/25 12:13:47;;;;;;;31.42;23.65;;;;;;;;;;5021251;28;20117;-76
2023/08/25 12:16:13;;;;;;;35.85;24.38;;;;;;;;;;5037618;28;20087;-75
2023/08/25 12:18:42;;;;;;;31.05;22.55;;;;;;;;;;5020292;28;20040;-77
2023/08/25 12:21:08;;;;;;;35.28;24.27;;;;;;;;;;5020015;28;20045;-74
2023/08/25 12:23:35;;;;;;;28.30;22.92;;;;;;;;;;5016735;28;20098;-75
2023/08/25 12:26:03;;;;;;;39.63;22.75;;;;;;;;;;5018933;28;20132;-75
2023/08/25 12:28:29;;;;;;;34.30;23.08;;;;;;;;;;5038071;28;21678;-75
2023/08/25 12:30:56;;;;;;;28.38;22.45;;;;;;;;;;5019023;28;20455;-75
2023/08/25 12:33:22;;;;;;;31.10;23.58;;;;;;;;;;5019632;28;20036;-75
2023/08/25 12:35:49;;;;;;;30.23;22.75;;;;;;;;;;5016475;28;20045;-76
2023/08/25 12:38:15;;;;;;;34.17;24.20;;;;;;;;;;5017027;28;20062;-75
2023/08/25 12:40:41;;;;;;;37.40;23.92;;;;;;;;;;5032664;28;20052;-75
2023/08/25 12:43:07;;;;;;;38.92;24.25;;;;;;;;;;4997114;28;20488;-75
2023/08/25 12:45:33;;;;;;;32.40;25.20;;;;;;;;;;5032782;28;20044;-75
2023/08/25 12:47:59;;;;;;;37.22;24.95;;;;;;;;;;5016010;28;20171;-75
2023/08/25 12:50:27;;;;;;;36.50;26.10;;;;;;;;;;5036963;28;20033;-79
2023/08/25 12:52:54;;;;;;;33.80;23.95;;;;;;;;;;5021430;28;21720;-80
2023/08/25 12:55:23;;;;;;;34.55;24.83;;;;;;;;;;5003022;28;20150;-79
2023/08/25 12:57:49;;;;;;;32.25;24.60;;;;;;;;;;5014623;28;20040;-79
2023/08/25 13:00:16;;;;;;;33.78;25.65;;;;;;;;;;5032702;28;20779;-79
2023/08/25 13:02:43;;;;;;;35.33;25.08;;;;;;;;;;5013895;28;20044;-79
2023/08/25 13:05:09;;;;;;;34.55;25.50;;;;;;;;;;5015511;28;20468;-79
2023/08/25 13:07:36;;;;;;;31.75;23.42;;;;;;;;;;5034553;28;20709;-79
2023/08/25 13:10:04;;;;;;;33.35;22.23;;;;;;;;;;5023410;28;20036;-78
2023/08/25 13:12:31;;;;;;;31.17;22.70;;;;;;;;;;5033231;28;20060;-78
2023/08/25 13:14:57;;;;;;;34.95;21.00;;;;;;;;;;5031133;28;20049;-78
2023/08/25 13:17:24;;;;;;;25.52;20.15;;;;;;;;;;5014505;28;20048;-78
2023/08/25 13:19:50;;;;;;;26.15;19.05;;;;;;;;;;5016057;28;20045;-78
2023/08/25 13:22:16;;;;;;;26.70;17.90;;;;;;;;;;5034618;28;20456;-78
2023/08/25 13:24:42;;;;;;;30.85;17.88;;;;;;;;;;5019487;28;20067;-77
2023/08/25 13:27:08;;;;;;;28.67;17.08;;;;;;;;;;5015794;28;20049;-78
2023/08/25 13:29:34;;;;;;;26.95;18.55;;;;;;;;;;5014932;28;20045;-78
2023/08/25 13:32:00;;;;;;;25.77;17.23;;;;;;;;;;5034448;28;20056;-78
2023/08/25 13:34:26;;;;;;;24.40;17.85;;;;;;;;;;5014332;28;20048;-76
2023/08/25 13:36:52;;;;;;;25.73;18.38;;;;;;;;;;5002050;28;20036;-76
2023/08/25 13:39:19;;;;;;;28.33;18.80;;;;;;;;;;5017335;28;20558;-77
2023/08/25 13:41:45;;;;;;;27.30;18.65;;;;;;;;;;5018777;28;20121;-77
2023/08/25 13:44:11;;;;;;;24.83;18.52;;;;;;;;;;4998114;28;20543;-81
2023/08/25 13:46:37;;;;;;;28.88;18.42;;;;;;;;;;5037648;28;20064;-80
2023/08/25 13:49:04;;;;;;;26.65;19.33;;;;;;;;;;5020298;28;20127;-79
2023/08/25 13:51:30;;;;;;;26.80;18.52;;;;;;;;;;5006104;28;20053;-78
2023/08/25 13:53:56;;;;;;;26.58;18.35;;;;;;;;;;5021595;28;20139;-78
2023/08/25 13:56:22;;;;;;;28.10;18.27;;;;;;;;;;5011188;28;20102;-79
2023/08/25 13:58:48;;;;;;;30.42;18.08;;;;;;;;;;5028624;28;20055;-79
2023/08/25 14:01:16;;;;;;;28.20;18.60;;;;;;;;;;5020713;28;20057;-79
2023/08/25 14:03:42;;;;;;;28.05;17.85;;;;;;;;;;5019569;28;20079;-78
2023/08/25 14:06:08;;;;;;;28.52;16.98;;;;;;;;;;5022780;28;20055;-78
2023/08/25 14:08:35;;;;;;;26.80;16.55;;;;;;;;;;5019321;28;20044;-78
2023/08/25 14:11:01;;;;;;;22.40;17.20;;;;;;;;;;5042505;28;20040;-77
2023/08/25 14:13:27;;;;;;;26.80;17.90;;;;;;;;;;5019389;28;20042;-77
2023/08/25 14:15:53;;;;;;;26.23;17.10;;;;;;;;;;5020400;28;20215;-77